Map

Track Data

SID SEASON NUMBER BASIN SUBBASIN NAME ISO_TIME NATURE LAT LON WMO_WIND WMO_PRES WMO_AGENCY TRACK_TYPE DIST2LAND LANDFALL IFLAG USA_AGENCY USA_ATCF_ID USA_LAT USA_LON USA_RECORD USA_STATUS USA_WIND USA_PRES USA_SSHS USA_R34_NE USA_R34_SE USA_R34_SW USA_R34_NW USA_R50_NE USA_R50_SE USA_R50_SW USA_R50_NW USA_R64_NE USA_R64_SE USA_R64_SW USA_R64_NW USA_POCI USA_ROCI USA_RMW USA_EYE TOKYO_LAT TOKYO_LON TOKYO_GRADE TOKYO_WIND TOKYO_PRES TOKYO_R50_DIR TOKYO_R50_LONG TOKYO_R50_SHORT TOKYO_R30_DIR TOKYO_R30_LONG TOKYO_R30_SHORT TOKYO_LAND CMA_LAT CMA_LON CMA_CAT CMA_WIND CMA_PRES HKO_LAT HKO_LON HKO_CAT HKO_WIND HKO_PRES NEWDELHI_LAT NEWDELHI_LON NEWDELHI_GRADE NEWDELHI_WIND NEWDELHI_PRES NEWDELHI_CI NEWDELHI_DP NEWDELHI_POCI REUNION_LAT REUNION_LON REUNION_TYPE REUNION_WIND REUNION_PRES REUNION_TNUM REUNION_CI REUNION_RMW REUNION_R34_NE REUNION_R34_SE REUNION_R34_SW REUNION_R34_NW REUNION_R50_NE REUNION_R50_SE REUNION_R50_SW REUNION_R50_NW REUNION_R64_NE REUNION_R64_SE REUNION_R64_SW REUNION_R64_NW BOM_LAT BOM_LON BOM_TYPE BOM_WIND BOM_PRES BOM_TNUM BOM_CI BOM_RMW BOM_R34_NE BOM_R34_SE BOM_R34_SW BOM_R34_NW BOM_R50_NE BOM_R50_SE BOM_R50_SW BOM_R50_NW BOM_R64_NE BOM_R64_SE BOM_R64_SW BOM_R64_NW BOM_ROCI BOM_POCI BOM_EYE BOM_POS_METHOD BOM_PRES_METHOD NADI_LAT NADI_LON NADI_CAT NADI_WIND NADI_PRES WELLINGTON_LAT WELLINGTON_LON WELLINGTON_WIND WELLINGTON_PRES DS824_LAT DS824_LON DS824_STAGE DS824_WIND DS824_PRES TD9636_LAT TD9636_LON TD9636_STAGE TD9636_WIND TD9636_PRES TD9635_LAT TD9635_LON TD9635_WIND TD9635_PRES TD9635_ROCI NEUMANN_LAT NEUMANN_LON NEUMANN_CLASS NEUMANN_WIND NEUMANN_PRES MLC_LAT MLC_LON MLC_CLASS MLC_WIND MLC_PRES USA_GUST BOM_GUST BOM_GUST_PER REUNION_GUST REUNION_GUST_PER USA_SEAHGT USA_SEARAD_NE USA_SEARAD_SE USA_SEARAD_SW USA_SEARAD_NW STORM_SPEED STORM_DIR
2020200N11242 2020 39 EP MM NOT_NAMED 2020-07-17 18:00:00 NR 11.1000 -117.900 PROVISIONAL 1564 1560 O_____________ nhc_working_bt EP072020 11.1000 -117.900 DB 20 1009 -3 1010 100 50 17 299
2020200N11242 2020 39 EP MM NOT_NAMED 2020-07-17 21:00:00 NR 11.5105 -118.667 PROVISIONAL 1574 1571 P_____________ EP072020 11.5105 -118.667 DB 20 1009 -3 1010 100 50 17 299
2020200N11242 2020 39 EP MM NOT_NAMED 2020-07-18 00:00:00 NR 11.9000 -119.400 PROVISIONAL 1583 1580 O_____________ nhc_working_bt EP072020 11.9000 -119.400 DB 20 1009 -3 1010 100 50 16 298
2020200N11242 2020 39 EP MM NOT_NAMED 2020-07-18 03:00:00 NR 12.2573 -120.073 PROVISIONAL 1596 1596 P_____________ EP072020 12.2573 -120.073 DB 20 1009 -3 1010 100 50 15 299
2020200N11242 2020 39 EP MM NOT_NAMED 2020-07-18 06:00:00 NR 12.6000 -120.700 PROVISIONAL 1614 1614 O_____________ nhc_working_bt EP072020 12.6000 -120.700 DB 20 1009 -3 1010 100 50 14 300
2020200N11242 2020 39 EP MM NOT_NAMED 2020-07-18 09:00:00 NR 12.9573 -121.308 PROVISIONAL 1626 1626 P_____________ EP072020 12.9573 -121.308 DB 20 1009 -3 1010 100 50 14 301
2020200N11242 2020 39 EP MM NOT_NAMED 2020-07-18 12:00:00 NR 13.3000 -121.900 PROVISIONAL 1637 1635 O_____________ nhc_working_bt EP072020 13.3000 -121.900 DB 20 1009 -3 1010 100 50 13 300
2020200N11242 2020 39 EP MM NOT_NAMED 2020-07-18 15:00:00 NR 13.6224 -122.500 PROVISIONAL 1652 1650 P_____________ EP072020 13.6224 -122.500 DB 20 1009 -3 1010 100 50 13 297
2020200N11242 2020 39 EP MM NOT_NAMED 2020-07-18 18:00:00 NR 13.9000 -123.100 PROVISIONAL 1669 1668 O_____________ nhc_working_bt EP072020 13.9000 -123.100 DB 20 1009 -3 1010 100 50 13 293
2020200N11242 2020 39 EP MM NOT_NAMED 2020-07-18 21:00:00 NR 14.1149 -123.708 PROVISIONAL 1696 1696 P_____________ EP072020 14.1149 -123.708 DB 22 1008 -3 1010 100 45 12 289
2020200N11242 2020 39 EP MM NOT_NAMED 2020-07-19 00:00:00 DS 14.3000 -124.300 PROVISIONAL 1726 1726 O_____________ nhc_working_bt EP072020 14.3000 -124.300 LO 25 1008 -3 1010 100 40 12 289
2020200N11242 2020 39 EP MM NOT_NAMED 2020-07-19 03:00:00 DS 14.4924 -124.865 PROVISIONAL 1757 1757 P_____________ EP072020 14.4924 -124.865 LO 25 1007 -3 1010 100 40 11 291
2020200N11242 2020 39 EP MM NOT_NAMED 2020-07-19 06:00:00 DS 14.7000 -125.400 PROVISIONAL 1782 1782 O_____________ nhc_working_bt EP072020 14.7000 -125.400 LO 25 1007 -3 1010 100 40 11 292
2020200N11242 2020 39 EP MM NOT_NAMED 2020-07-19 09:00:00 DS 14.9125 -125.930 PROVISIONAL 1808 1808 P_____________ EP072020 14.9125 -125.930 LO 25 1007 -3 1010 110 40 11 297
2020200N11242 2020 39 EP MM NOT_NAMED 2020-07-19 12:00:00 DS 15.2000 -126.400 PROVISIONAL 1826 1811 O_____________ nhc_working_bt EP072020 15.2000 -126.400 LO 25 1007 -3 1011 120 40 11 312
2020200N11242 2020 39 EP MM NOT_NAMED 2020-07-19 15:00:00 DS 15.6198 -126.758 PROVISIONAL 1818 1797 P_____________ EP072020 15.6198 -126.758 LO 25 1007 -3 1011 120 40 11 323
2020200N11242 2020 39 EP MM NOT_NAMED 2020-07-19 18:00:00 DS 16.1000 -127.100 PROVISIONAL 1797 1786 O_____________ nhc_working_bt EP072020 16.1000 -127.100 LO 25 1008 -3 1011 120 40 12 322
2020200N11242 2020 39 EP MM NOT_NAMED 2020-07-19 21:00:00 DS 16.5650 -127.535 PROVISIONAL 1785 1783 P_____________ EP072020 16.5650 -127.535 LO 27 1007 -3 1011 120 40 13 316
2020200N11242 2020 39 EP MM NOT_NAMED 2020-07-20 00:00:00 DS 17.0000 -128.000 PROVISIONAL 1791 1790 O_____________ nhc_working_bt EP072020 17.0000 -128.000 LO 30 1007 -3 1011 120 40 12 312
2020200N11242 2020 39 EP MM NOT_NAMED 2020-07-20 03:00:00 DS 17.3724 -128.458 PROVISIONAL 1799 1799 P_____________ EP072020 17.3724 -128.458 LO 30 1007 -3 1011 120 35 11 309
2020200N11242 2020 39 EP MM NOT_NAMED 2020-07-20 06:00:00 TS 17.7000 -128.900 PROVISIONAL 1808 1808 O_____________ nhc_working_bt EP072020 17.7000 -128.900 TD 30 1007 -1 1011 120 30 40 11 309
2020200N11242 2020 39 EP MM NOT_NAMED 2020-07-20 09:00:00 TS 18.0463 -129.340 PROVISIONAL 1819 1819 P_____________ EP072020 18.0149 -129.308 TD 30 1007 -1 1012 120 30 11 309
2020200N11242 2020 39 EP MM NOT_NAMED 2020-07-20 12:00:00 TS 18.3600 -129.760 PROVISIONAL 1833 1833 O_____________ nhc_working_bt EP072020 18.3000 -129.700 TD 30 1008 -1 1013 120 30 40 9 307
2020200N11242 2020 39 EP MM NOT_NAMED 2020-07-20 15:00:00 TS 18.6107 -130.139 PROVISIONAL 1845 1845 P_____________ EP072020 18.5724 -130.100 TD 30 1008 -1 1013 120 30 8 302
2020200N11242 2020 39 EP MM NOT_NAMED 2020-07-20 18:00:00 TS 18.8000 -130.500 PROVISIONAL 1866 1866 O_____________ nhc_working_bt EP072020 18.8000 -130.500 TD 30 1008 -1 1014 120 30 40 8 297
2020200N11242 2020 39 EP MM NOT_NAMED 2020-07-20 21:00:00 TS 18.9648 -130.873 PROVISIONAL 1888 1888 P_____________ EP072020 18.9722 -130.878 TD 30 1008 -1 1014 120 30 8 292
2020200N11242 2020 39 EP MM NOT_NAMED 2020-07-21 00:00:00 TS 19.1000 -131.300 PROVISIONAL 1917 1917 O_____________ nhc_working_bt EP072020 19.1000 -131.300 TD 30 1008 -1 1014 120 30 40 9 287
2020200N11242 2020 39 EP MM NOT_NAMED 2020-07-21 03:00:00 TS 19.2417 -131.827 PROVISIONAL 1955 1955 P_____________ EP072020 19.2225 -131.827 TD 30 1008 -1 1014 120 30 11 283
2020200N11242 2020 39 EP MM NOT_NAMED 2020-07-21 06:00:00 TS 19.3333 -132.400 PROVISIONAL 2003 2003 O_____________ nhc_working_bt EP072020 19.3000 -132.400 TD 30 1008 -1 1014 120 30 40 11 275
2020200N11242 2020 39 EP MM NOT_NAMED 2020-07-21 09:00:00 TS 19.3419 -132.958 PROVISIONAL 2057 2057 P_____________ EP072020 19.3177 -132.958 TD 30 1008 -1 1014 120 30 10 268
2020200N11242 2020 39 EP MM NOT_NAMED 2020-07-21 12:00:00 DS 19.3000 -133.500 PROVISIONAL 2102 O_____________ nhc_working_bt EP072020 19.3000 -133.500 LO 30 1009 -3 1014 120 30 40 10 265

About IBTrACS Database

This database is a web-friendly format of International Best Track Archive for Climate Stewardship (IBTrACS), a global best track data archive curated by NOAA dating back to 1842.

Updated: 2021-11-26